sensor_id;sensor_type;location;lat;lon;timestamp;pressure;altitude;pressure_sealevel;temperature;humidity
40502;BME280;29631;49.168;9.848;2022-12-20T00:01:25;97202.09;;;9.39;79.60
40502;BME280;29631;49.168;9.848;2022-12-20T00:03:53;97206.34;;;9.40;79.52
40502;BME280;29631;49.168;9.848;2022-12-20T00:06:20;97217.69;;;9.40;79.38
40502;BME280;29631;49.168;9.848;2022-12-20T00:08:51;97222.84;;;9.48;79.48
40502;BME280;29631;49.168;9.848;2022-12-20T00:11:17;97205.72;;;9.38;79.93
40502;BME280;29631;49.168;9.848;2022-12-20T00:13:45;97213.50;;;9.46;80.03
40502;BME280;29631;49.168;9.848;2022-12-20T00:16:15;97210.25;;;9.44;79.74
40502;BME280;29631;49.168;9.848;2022-12-20T00:18:41;97183.78;;;9.31;80.09
40502;BME280;29631;49.168;9.848;2022-12-20T00:21:10;97194.44;;;9.44;80.07
40502;BME280;29631;49.168;9.848;2022-12-20T00:23:37;97192.81;;;9.43;80.21
40502;BME280;29631;49.168;9.848;2022-12-20T00:26:13;97189.59;;;9.41;79.52
40502;BME280;29631;49.168;9.848;2022-12-20T00:28:41;97187.19;;;9.46;80.21
40502;BME280;29631;49.168;9.848;2022-12-20T00:31:09;97185.94;;;9.42;80.47
40502;BME280;29631;49.168;9.848;2022-12-20T00:33:37;97202.63;;;9.49;79.65
40502;BME280;29631;49.168;9.848;2022-12-20T00:36:04;97175.16;;;9.37;80.47
40502;BME280;29631;49.168;9.848;2022-12-20T00:38:30;97192.47;;;9.46;79.53
40502;BME280;29631;49.168;9.848;2022-12-20T00:41:09;97186.84;;;9.49;80.30
40502;BME280;29631;49.168;9.848;2022-12-20T00:43:35;97164.50;;;9.45;79.97
40502;BME280;29631;49.168;9.848;2022-12-20T00:46:02;97167.59;;;9.48;79.33
40502;BME280;29631;49.168;9.848;2022-12-20T00:48:29;97169.88;;;9.51;80.02
40502;BME280;29631;49.168;9.848;2022-12-20T00:51:10;97155.97;;;9.43;79.67
40502;BME280;29631;49.168;9.848;2022-12-20T00:53:36;97179.22;;;9.54;79.25
40502;BME280;29631;49.168;9.848;2022-12-20T00:56:04;97188.09;;;9.53;79.10
40502;BME280;29631;49.168;9.848;2022-12-20T00:58:33;97171.78;;;9.43;79.44
40502;BME280;29631;49.168;9.848;2022-12-20T01:00:59;97185.56;;;9.45;79.94
40502;BME280;29631;49.168;9.848;2022-12-20T01:03:26;97197.00;;;9.52;80.63
40502;BME280;29631;49.168;9.848;2022-12-20T01:06:01;97190.47;;;9.48;80.11
40502;BME280;29631;49.168;9.848;2022-12-20T01:08:30;97157.38;;;9.39;80.28
40502;BME280;29631;49.168;9.848;2022-12-20T01:11:10;97181.66;;;9.55;80.09
40502;BME280;29631;49.168;9.848;2022-12-20T01:13:40;97164.59;;;9.51;80.25
40502;BME280;29631;49.168;9.848;2022-12-20T01:18:50;97176.19;;;9.57;79.86
40502;BME280;29631;49.168;9.848;2022-12-20T01:21:18;97159.91;;;9.47;79.57
40502;BME280;29631;49.168;9.848;2022-12-20T01:23:45;97162.53;;;9.47;80.22
40502;BME280;29631;49.168;9.848;2022-12-20T01:26:14;97177.56;;;9.53;80.09
40502;BME280;29631;49.168;9.848;2022-12-20T01:28:43;97152.44;;;9.50;79.83
40502;BME280;29631;49.168;9.848;2022-12-20T01:31:12;97134.22;;;9.49;79.62
40502;BME280;29631;49.168;9.848;2022-12-20T01:33:39;97129.81;;;9.56;80.18
40502;BME280;29631;49.168;9.848;2022-12-20T01:36:09;97124.50;;;9.49;80.16
40502;BME280;29631;49.168;9.848;2022-12-20T01:38:35;97168.69;;;9.54;80.07
40502;BME280;29631;49.168;9.848;2022-12-20T01:41:02;97150.41;;;9.32;80.00
40502;BME280;29631;49.168;9.848;2022-12-20T01:43:53;97153.09;;;9.38;79.98
40502;BME280;29631;49.168;9.848;2022-12-20T01:46:23;97135.31;;;9.40;79.71
40502;BME280;29631;49.168;9.848;2022-12-20T01:48:59;97172.66;;;9.50;79.73
40502;BME280;29631;49.168;9.848;2022-12-20T01:51:30;97170.63;;;9.45;79.74
40502;BME280;29631;49.168;9.848;2022-12-20T01:54:06;97174.25;;;9.44;80.49
40502;BME280;29631;49.168;9.848;2022-12-20T01:56:37;97163.53;;;9.46;80.49
40502;BME280;29631;49.168;9.848;2022-12-20T01:59:05;97139.94;;;9.38;79.55
40502;BME280;29631;49.168;9.848;2022-12-20T02:01:31;97131.59;;;9.35;80.45
40502;BME280;29631;49.168;9.848;2022-12-20T02:03:58;97151.34;;;9.45;80.42
40502;BME280;29631;49.168;9.848;2022-12-20T02:06:25;97162.34;;;9.48;79.92
40502;BME280;29631;49.168;9.848;2022-12-20T02:08:55;97152.34;;;9.44;79.79
40502;BME280;29631;49.168;9.848;2022-12-20T02:12:14;97181.19;;;9.52;80.59
40502;BME280;29631;49.168;9.848;2022-12-20T02:27:13;97140.19;;;9.43;80.74
40502;BME280;29631;49.168;9.848;2022-12-20T02:32:58;97131.59;;;9.35;79.74
40502;BME280;29631;49.168;9.848;2022-12-20T02:35:29;97121.09;;;9.35;79.97
40502;BME280;29631;49.168;9.848;2022-12-20T02:37:58;97099.34;;;9.26;80.47
40502;BME280;29631;49.168;9.848;2022-12-20T02:40:40;97104.25;;;9.29;79.93
40502;BME280;29631;49.168;9.848;2022-12-20T02:43:09;97118.28;;;9.36;79.89
40502;BME280;29631;49.168;9.848;2022-12-20T02:45:55;97140.19;;;9.43;80.48
40502;BME280;29631;49.168;9.848;2022-12-20T02:48:25;97131.31;;;9.44;80.03
40502;BME280;29631;49.168;9.848;2022-12-20T02:50:54;97116.50;;;9.43;80.53
40502;BME280;29631;49.168;9.848;2022-12-20T02:53:22;97122.41;;;9.45;79.54
40502;BME280;29631;49.168;9.848;2022-12-20T02:56:11;97111.53;;;9.48;80.32
40502;BME280;29631;49.168;9.848;2022-12-20T03:01:29;97096.84;;;9.39;79.90
40502;BME280;29631;49.168;9.848;2022-12-20T03:03:57;97095.97;;;9.32;79.52
40502;BME280;29631;49.168;9.848;2022-12-20T03:06:24;97073.44;;;9.23;79.66
40502;BME280;29631;49.168;9.848;2022-12-20T03:08:50;97091.84;;;9.23;79.76
40502;BME280;29631;49.168;9.848;2022-12-20T03:11:15;97089.66;;;9.12;79.80
40502;BME280;29631;49.168;9.848;2022-12-20T03:13:41;97087.31;;;9.17;80.03
40502;BME280;29631;49.168;9.848;2022-12-20T03:16:07;97091.84;;;9.23;80.62
40502;BME280;29631;49.168;9.848;2022-12-20T03:18:35;97079.44;;;9.17;80.03
40502;BME280;29631;49.168;9.848;2022-12-20T03:21:00;97074.28;;;9.09;80.27
40502;BME280;29631;49.168;9.848;2022-12-20T03:23:26;97087.31;;;9.17;80.76
40502;BME280;29631;49.168;9.848;2022-12-20T03:25:54;97070.66;;;9.10;80.09
40502;BME280;29631;49.168;9.848;2022-12-20T03:28:20;97096.66;;;9.20;80.51
40502;BME280;29631;49.168;9.848;2022-12-20T03:30:46;97082.47;;;9.21;80.87
40502;BME280;29631;49.168;9.848;2022-12-20T03:33:11;97070.00;;;9.08;79.70
40502;BME280;29631;49.168;9.848;2022-12-20T03:35:37;97090.56;;;9.19;79.89
40502;BME280;29631;49.168;9.848;2022-12-20T03:38:03;97098.34;;;9.27;80.87
40502;BME280;29631;49.168;9.848;2022-12-20T03:40:29;97078.06;;;9.21;80.54
40502;BME280;29631;49.168;9.848;2022-12-20T03:42:54;97054.44;;;9.07;80.76
40502;BME280;29631;49.168;9.848;2022-12-20T03:45:20;97069.72;;;9.18;79.75
40502;BME280;29631;49.168;9.848;2022-12-20T03:47:46;97071.16;;;9.20;80.60
40502;BME280;29631;49.168;9.848;2022-12-20T03:50:11;97067.28;;;9.16;80.65
40502;BME280;29631;49.168;9.848;2022-12-20T03:52:38;97077.94;;;9.29;80.87
40502;BME280;29631;49.168;9.848;2022-12-20T03:55:04;97065.16;;;9.26;80.30
40502;BME280;29631;49.168;9.848;2022-12-20T03:57:30;97049.38;;;9.26;80.77
40502;BME280;29631;49.168;9.848;2022-12-20T03:59:56;97063.16;;;9.28;80.48
40502;BME280;29631;49.168;9.848;2022-12-20T04:02:21;97044.31;;;9.25;80.33
40502;BME280;29631;49.168;9.848;2022-12-20T04:04:48;97069.59;;;9.26;80.67
40502;BME280;29631;49.168;9.848;2022-12-20T04:07:14;97082.22;;;9.30;79.99
40502;BME280;29631;49.168;9.848;2022-12-20T04:09:39;97051.66;;;9.15;80.89
40502;BME280;29631;49.168;9.848;2022-12-20T04:12:05;97077.94;;;9.29;80.97
40502;BME280;29631;49.168;9.848;2022-12-20T04:14:31;97076.94;;;9.30;80.62
40502;BME280;29631;49.168;9.848;2022-12-20T04:16:57;97065.16;;;9.26;80.80
40502;BME280;29631;49.168;9.848;2022-12-20T04:19:23;97059.13;;;9.32;80.72
40502;BME280;29631;49.168;9.848;2022-12-20T04:21:49;97075.16;;;9.37;80.62
40502;BME280;29631;49.168;9.848;2022-12-20T04:24:15;97045.00;;;9.33;80.09
40502;BME280;29631;49.168;9.848;2022-12-20T04:26:40;97057.28;;;9.47;80.99
40502;BME280;29631;49.168;9.848;2022-12-20T04:29:06;97037.84;;;9.48;79.98
40502;BME280;29631;49.168;9.848;2022-12-20T04:31:32;97022.44;;;9.45;80.30
40502;BME280;29631;49.168;9.848;2022-12-20T04:33:58;97012.78;;;9.52;80.61
40502;BME280;29631;49.168;9.848;2022-12-20T04:36:24;96987.22;;;9.46;81.05
40502;BME280;29631;49.168;9.848;2022-12-20T04:38:50;96993.84;;;9.63;80.38
40502;BME280;29631;49.168;9.848;2022-12-20T04:41:16;97003.00;;;9.67;81.10
40502;BME280;29631;49.168;9.848;2022-12-20T04:43:54;96998.94;;;9.64;81.07
40502;BME280;29631;49.168;9.848;2022-12-20T04:46:23;97015.75;;;9.70;80.49
40502;BME280;29631;49.168;9.848;2022-12-20T04:48:49;97008.25;;;9.67;81.54
40502;BME280;29631;49.168;9.848;2022-12-20T04:51:15;96989.41;;;9.63;80.83
40502;BME280;29631;49.168;9.848;2022-12-20T04:53:42;97004.03;;;9.72;81.01
40502;BME280;29631;49.168;9.848;2022-12-20T04:56:16;97015.88;;;9.83;82.08
40502;BME280;29631;49.168;9.848;2022-12-20T04:58:44;97021.63;;;9.93;81.60
40502;BME280;29631;49.168;9.848;2022-12-20T05:01:10;97008.06;;;9.96;82.02
40502;BME280;29631;49.168;9.848;2022-12-20T05:03:36;97003.88;;;10.01;82.15
40502;BME280;29631;49.168;9.848;2022-12-20T05:06:02;96996.66;;;10.10;81.98
40502;BME280;29631;49.168;9.848;2022-12-20T05:08:28;96983.81;;;10.00;82.41
40502;BME280;29631;49.168;9.848;2022-12-20T05:10:54;96995.44;;;10.12;82.28
40502;BME280;29631;49.168;9.848;2022-12-20T05:13:20;97003.00;;;10.21;81.41
40502;BME280;29631;49.168;9.848;2022-12-20T05:15:51;96995.09;;;10.21;82.73
40502;BME280;29631;49.168;9.848;2022-12-20T05:18:17;96988.66;;;10.30;83.03
40502;BME280;29631;49.168;9.848;2022-12-20T05:20:42;96999.22;;;10.37;82.10
40502;BME280;29631;49.168;9.848;2022-12-20T05:23:09;96955.81;;;10.26;82.24
40502;BME280;29631;49.168;9.848;2022-12-20T05:25:54;96983.47;;;10.43;83.28
40502;BME280;29631;49.168;9.848;2022-12-20T05:28:39;96974.16;;;10.47;83.30
40502;BME280;29631;49.168;9.848;2022-12-20T05:31:05;96962.81;;;10.53;82.58
40502;BME280;29631;49.168;9.848;2022-12-20T05:33:31;96963.66;;;10.60;83.30
40502;BME280;29631;49.168;9.848;2022-12-20T05:35:56;96959.63;;;10.64;82.71
40502;BME280;29631;49.168;9.848;2022-12-20T05:38:23;96966.56;;;10.72;82.88
40502;BME280;29631;49.168;9.848;2022-12-20T05:40:51;96961.28;;;10.65;83.05
40502;BME280;29631;49.168;9.848;2022-12-20T05:43:18;96957.88;;;10.84;83.15
40502;BME280;29631;49.168;9.848;2022-12-20T05:45:49;96958.88;;;10.89;83.50
40502;BME280;29631;49.168;9.848;2022-12-20T05:48:17;96943.66;;;10.85;82.91
40502;BME280;29631;49.168;9.848;2022-12-20T05:50:43;96974.97;;;11.01;83.66
40502;BME280;29631;49.168;9.848;2022-12-20T05:53:14;96974.75;;;11.02;82.77
40502;BME280;29631;49.168;9.848;2022-12-20T05:55:59;96985.72;;;11.06;83.12
40502;BME280;29631;49.168;9.848;2022-12-20T05:58:26;96983.06;;;11.06;83.11
40502;BME280;29631;49.168;9.848;2022-12-20T06:00:52;96976.38;;;11.03;82.41
40502;BME280;29631;49.168;9.848;2022-12-20T06:03:18;97002.59;;;11.18;83.18
40502;BME280;29631;49.168;9.848;2022-12-20T06:05:44;96982.06;;;11.07;82.89
40502;BME280;29631;49.168;9.848;2022-12-20T06:08:11;96985.53;;;11.14;82.04
40502;BME280;29631;49.168;9.848;2022-12-20T06:10:39;96986.97;;;11.16;82.83
40502;BME280;29631;49.168;9.848;2022-12-20T06:13:06;96985.75;;;11.19;82.21
40502;BME280;29631;49.168;9.848;2022-12-20T06:15:32;96971.75;;;11.18;82.60
40502;BME280;29631;49.168;9.848;2022-12-20T06:17:58;96956.50;;;11.14;82.56
40502;BME280;29631;49.168;9.848;2022-12-20T06:20:24;96946.75;;;11.08;82.61
40502;BME280;29631;49.168;9.848;2022-12-20T06:22:49;96965.06;;;11.16;82.83
40502;BME280;29631;49.168;9.848;2022-12-20T06:25:17;96965.47;;;11.19;81.94
40502;BME280;29631;49.168;9.848;2022-12-20T06:27:43;96941.50;;;11.08;81.41
40502;BME280;29631;49.168;9.848;2022-12-20T06:30:10;96937.00;;;11.08;81.29
40502;BME280;29631;49.168;9.848;2022-12-20T06:32:36;96920.16;;;10.96;81.29
40502;BME280;29631;49.168;9.848;2022-12-20T06:35:03;96946.56;;;11.03;81.99
40502;BME280;29631;49.168;9.848;2022-12-20T06:37:29;96951.41;;;10.99;81.07
40502;BME280;29631;49.168;9.848;2022-12-20T06:39:55;96948.75;;;10.93;81.51
40502;BME280;29631;49.168;9.848;2022-12-20T06:42:20;96958.88;;;10.89;82.14
40502;BME280;29631;49.168;9.848;2022-12-20T06:44:46;96935.94;;;10.77;81.05
40502;BME280;29631;49.168;9.848;2022-12-20T06:47:12;96964.75;;;10.85;81.73
40502;BME280;29631;49.168;9.848;2022-12-20T06:49:38;96947.50;;;10.76;81.05
40502;BME280;29631;49.168;9.848;2022-12-20T06:52:04;96962.91;;;10.79;81.59
40502;BME280;29631;49.168;9.848;2022-12-20T06:54:30;96955.16;;;10.58;81.69
40502;BME280;29631;49.168;9.848;2022-12-20T06:56:55;96953.56;;;10.70;81.02
40502;BME280;29631;49.168;9.848;2022-12-20T06:59:21;96949.47;;;10.61;80.91
40502;BME280;29631;49.168;9.848;2022-12-20T07:01:47;96950.69;;;10.59;81.98
40502;BME280;29631;49.168;9.848;2022-12-20T07:04:12;96990.50;;;10.77;81.09
40502;BME280;29631;49.168;9.848;2022-12-20T07:06:38;96946.22;;;10.59;81.37
40502;BME280;29631;49.168;9.848;2022-12-20T07:09:04;96953.34;;;10.65;81.17
40502;BME280;29631;49.168;9.848;2022-12-20T07:11:30;96965.94;;;10.70;81.46
40502;BME280;29631;49.168;9.848;2022-12-20T07:13:57;96974.25;;;10.73;80.87
40502;BME280;29631;49.168;9.848;2022-12-20T07:16:23;96954.53;;;10.63;81.60
40502;BME280;29631;49.168;9.848;2022-12-20T07:18:50;96967.34;;;10.72;80.40
40502;BME280;29631;49.168;9.848;2022-12-20T07:21:18;96955.38;;;10.63;80.81
40502;BME280;29631;49.168;9.848;2022-12-20T07:23:45;96954.38;;;10.64;80.54
40502;BME280;29631;49.168;9.848;2022-12-20T07:26:12;96968.13;;;10.60;80.35
40502;BME280;29631;49.168;9.848;2022-12-20T07:28:39;96968.34;;;10.65;81.29
40502;BME280;29631;49.168;9.848;2022-12-20T07:31:06;96968.94;;;10.60;81.24
40502;BME280;29631;49.168;9.848;2022-12-20T07:33:32;96977.09;;;10.65;81.56
40502;BME280;29631;49.168;9.848;2022-12-20T07:36:06;96964.44;;;10.54;81.29
40502;BME280;29631;49.168;9.848;2022-12-20T07:38:33;96966.28;;;10.54;80.50
40502;BME280;29631;49.168;9.848;2022-12-20T07:41:05;96961.81;;;10.54;81.11
40502;BME280;29631;49.168;9.848;2022-12-20T07:43:31;96964.44;;;10.54;81.19
40502;BME280;29631;49.168;9.848;2022-12-20T07:45:57;96950.69;;;10.52;80.17
40502;BME280;29631;49.168;9.848;2022-12-20T07:48:23;96938.88;;;10.42;80.44
40502;BME280;29631;49.168;9.848;2022-12-20T07:50:56;96946.16;;;10.46;80.40
40502;BME280;29631;49.168;9.848;2022-12-20T07:53:24;96957.97;;;10.50;81.15
40502;BME280;29631;49.168;9.848;2022-12-20T07:55:52;96940.69;;;10.41;81.13
40502;BME280;29631;49.168;9.848;2022-12-20T07:58:19;96953.06;;;10.47;81.03
40502;BME280;29631;49.168;9.848;2022-12-20T08:00:45;96950.84;;;10.44;80.41
40502;BME280;29631;49.168;9.848;2022-12-20T08:03:22;96954.28;;;10.45;80.90
40502;BME280;29631;49.168;9.848;2022-12-20T08:05:54;96957.06;;;10.37;80.53
40502;BME280;29631;49.168;9.848;2022-12-20T08:08:21;96966.44;;;10.39;81.22
40502;BME280;29631;49.168;9.848;2022-12-20T08:10:47;96970.06;;;10.38;80.37
40502;BME280;29631;49.168;9.848;2022-12-20T08:13:14;96970.06;;;10.38;81.02
40502;BME280;29631;49.168;9.848;2022-12-20T08:15:40;96975.34;;;10.38;80.41
40502;BME280;29631;49.168;9.848;2022-12-20T08:18:06;96969.66;;;10.41;80.51
40502;BME280;29631;49.168;9.848;2022-12-20T08:20:32;96961.53;;;10.36;81.28
40502;BME280;29631;49.168;9.848;2022-12-20T08:22:58;96958.69;;;10.31;81.20
40502;BME280;29631;49.168;9.848;2022-12-20T08:25:24;96959.47;;;10.32;81.16
40502;BME280;29631;49.168;9.848;2022-12-20T08:27:50;96945.66;;;10.23;80.58
40502;BME280;29631;49.168;9.848;2022-12-20T08:30:16;96979.19;;;10.42;80.79
40502;BME280;29631;49.168;9.848;2022-12-20T08:32:41;96930.66;;;10.17;81.60
40502;BME280;29631;49.168;9.848;2022-12-20T08:35:08;96959.13;;;10.41;80.45
40502;BME280;29631;49.168;9.848;2022-12-20T08:37:34;96939.63;;;10.29;80.85
40502;BME280;29631;49.168;9.848;2022-12-20T08:39:59;96957.50;;;10.40;81.56
40502;BME280;29631;49.168;9.848;2022-12-20T08:42:26;96885.50;;;9.93;80.58
40502;BME280;29631;49.168;9.848;2022-12-20T08:44:52;96961.75;;;10.41;80.70
40502;BME280;29631;49.168;9.848;2022-12-20T08:47:18;96933.56;;;10.35;81.51
40502;BME280;29631;49.168;9.848;2022-12-20T08:49:44;96964.41;;;10.41;80.88
40502;BME280;29631;49.168;9.848;2022-12-20T08:52:10;96921.75;;;10.25;81.59
40502;BME280;29631;49.168;9.848;2022-12-20T08:54:35;96954.69;;;10.42;81.23
40502;BME280;29631;49.168;9.848;2022-12-20T08:57:01;96942.66;;;10.33;80.77
40502;BME280;29631;49.168;9.848;2022-12-20T08:59:27;96943.72;;;10.38;81.54
40502;BME280;29631;49.168;9.848;2022-12-20T09:01:52;96924.59;;;10.23;81.05
40502;BME280;29631;49.168;9.848;2022-12-20T09:04:20;96938.03;;;10.41;81.72
40502;BME280;29631;49.168;9.848;2022-12-20T09:06:46;96927.88;;;10.32;81.62
40502;BME280;29631;49.168;9.848;2022-12-20T09:09:12;96938.03;;;10.41;81.60
40502;BME280;29631;49.168;9.848;2022-12-20T09:11:38;96903.50;;;10.23;81.89
40502;BME280;29631;49.168;9.848;2022-12-20T09:14:04;96937.66;;;10.44;80.72
40502;BME280;29631;49.168;9.848;2022-12-20T09:16:31;96928.31;;;10.42;80.86
40502;BME280;29631;49.168;9.848;2022-12-20T09:19:00;96930.75;;;10.43;81.57
40502;BME280;29631;49.168;9.848;2022-12-20T09:21:26;96928.50;;;10.40;81.74
40502;BME280;29631;49.168;9.848;2022-12-20T09:23:53;96914.94;;;10.43;80.87
40502;BME280;29631;49.168;9.848;2022-12-20T09:26:21;96918.63;;;10.55;81.16
40502;BME280;29631;49.168;9.848;2022-12-20T09:28:48;96915.78;;;10.50;81.26
40502;BME280;29631;49.168;9.848;2022-12-20T09:31:18;96901.34;;;10.46;81.78
40502;BME280;29631;49.168;9.848;2022-12-20T09:33:44;96910.31;;;10.45;81.79
40502;BME280;29631;49.168;9.848;2022-12-20T09:36:17;96888.19;;;10.40;80.97
40502;BME280;29631;49.168;9.848;2022-12-20T09:38:44;96904.63;;;10.48;81.65
40502;BME280;29631;49.168;9.848;2022-12-20T09:43:48;96878.47;;;10.47;82.43
40502;BME280;29631;49.168;9.848;2022-12-20T09:46:14;96899.19;;;10.56;81.50
40502;BME280;29631;49.168;9.848;2022-12-20T09:48:42;96880.09;;;10.48;81.66
40502;BME280;29631;49.168;9.848;2022-12-20T10:00:17;96900.44;;;10.73;82.46
40502;BME280;29631;49.168;9.848;2022-12-20T10:02:43;96895.19;;;10.80;82.56
40502;BME280;29631;49.168;9.848;2022-12-20T10:05:37;96887.06;;;10.75;81.43
40502;BME280;29631;49.168;9.848;2022-12-20T10:14:59;96889.91;;;10.86;82.46
40502;BME280;29631;49.168;9.848;2022-12-20T10:20:54;96883.66;;;10.93;81.51
40502;BME280;29631;49.168;9.848;2022-12-20T10:24:00;96872.88;;;10.95;81.53
40502;BME280;29631;49.168;9.848;2022-12-20T10:26:28;96891.97;;;10.97;81.83
40502;BME280;29631;49.168;9.848;2022-12-20T10:28:53;96869.41;;;10.94;81.81
40502;BME280;29631;49.168;9.848;2022-12-20T10:31:19;96882.22;;;11.04;82.57
40502;BME280;29631;49.168;9.848;2022-12-20T10:33:45;96877.75;;;10.98;82.29
40502;BME280;29631;49.168;9.848;2022-12-20T10:38:57;96870.44;;;11.00;82.18
40502;BME280;29631;49.168;9.848;2022-12-20T10:41:30;96886.28;;;11.06;82.56
40502;BME280;29631;49.168;9.848;2022-12-20T10:46:44;96868.66;;;11.13;81.96
40502;BME280;29631;49.168;9.848;2022-12-20T10:49:38;96858.28;;;11.12;82.43
40502;BME280;29631;49.168;9.848;2022-12-20T10:54:36;96858.69;;;11.22;82.36
40502;BME280;29631;49.168;9.848;2022-12-20T10:57:28;96859.91;;;11.26;82.71
40502;BME280;29631;49.168;9.848;2022-12-20T11:00:00;96848.34;;;11.27;82.08
40502;BME280;29631;49.168;9.848;2022-12-20T11:02:31;96853.41;;;11.35;82.71
40502;BME280;29631;49.168;9.848;2022-12-20T11:07:29;96829.44;;;11.17;82.29
40502;BME280;29631;49.168;9.848;2022-12-20T11:10:29;96813.44;;;11.18;82.78
40502;BME280;29631;49.168;9.848;2022-12-20T11:13:00;96830.66;;;11.27;82.56
40502;BME280;29631;49.168;9.848;2022-12-20T11:15:30;96823.38;;;11.23;82.25
40502;BME280;29631;49.168;9.848;2022-12-20T11:20:40;96814.81;;;11.27;81.87
40502;BME280;29631;49.168;9.848;2022-12-20T11:37:26;96820.09;;;11.27;82.45
40502;BME280;29631;49.168;9.848;2022-12-20T11:43:30;96799.00;;;11.34;82.35
40502;BME280;29631;49.168;9.848;2022-12-20T11:46:35;96806.69;;;11.48;82.98
40502;BME280;29631;49.168;9.848;2022-12-20T11:49:26;96807.09;;;11.52;82.72
40502;BME280;29631;49.168;9.848;2022-12-20T11:52:03;96806.28;;;11.57;83.18
40502;BME280;29631;49.168;9.848;2022-12-20T11:54:40;96754.75;;;11.36;83.13
40502;BME280;29631;49.168;9.848;2022-12-20T11:57:26;96775.81;;;11.61;83.15
40502;BME280;29631;49.168;9.848;2022-12-20T11:59:57;96763.81;;;11.65;83.22
40502;BME280;29631;49.168;9.848;2022-12-20T12:02:55;96770.50;;;11.68;83.14
40502;BME280;29631;49.168;9.848;2022-12-20T12:05:40;96762.38;;;11.69;83.04
40502;BME280;29631;49.168;9.848;2022-12-20T12:08:15;96755.06;;;11.71;82.86
40502;BME280;29631;49.168;9.848;2022-12-20T12:11:03;96754.22;;;11.77;82.82
40502;BME280;29631;49.168;9.848;2022-12-20T12:13:35;96757.28;;;11.74;82.53
40502;BME280;29631;49.168;9.848;2022-12-20T12:18:44;96745.66;;;11.82;83.03
40502;BME280;29631;49.168;9.848;2022-12-20T12:21:32;96739.94;;;11.85;82.89
40502;BME280;29631;49.168;9.848;2022-12-20T12:26:38;96734.28;;;11.81;82.61
40502;BME280;29631;49.168;9.848;2022-12-20T12:32:51;96698.97;;;11.76;82.62
40502;BME280;29631;49.168;9.848;2022-12-20T12:46:45;96714.16;;;11.87;82.59
40502;BME280;29631;49.168;9.848;2022-12-20T12:49:21;96722.22;;;11.98;82.97
40502;BME280;29631;49.168;9.848;2022-12-20T12:51:56;96704.66;;;11.79;83.01
40502;BME280;29631;49.168;9.848;2022-12-20T12:54:34;96746.16;;;12.03;83.67
40502;BME280;29631;49.168;9.848;2022-12-20T12:57:21;96741.09;;;12.02;83.41
40502;BME280;29631;49.168;9.848;2022-12-20T12:59:49;96757.09;;;12.13;82.63
40502;BME280;29631;49.168;9.848;2022-12-20T13:09:59;96696.41;;;12.00;83.08
40502;BME280;29631;49.168;9.848;2022-12-20T13:17:55;96731.25;;;12.15;83.06
40502;BME280;29631;49.168;9.848;2022-12-20T13:20:27;96731.69;;;12.12;83.32
40502;BME280;29631;49.168;9.848;2022-12-20T13:25:51;96702.03;;;12.04;83.09
40502;BME280;29631;49.168;9.848;2022-12-20T13:33:47;96671.16;;;12.04;83.43
40502;BME280;29631;49.168;9.848;2022-12-20T13:38:59;96672.91;;;12.17;82.57
40502;BME280;29631;49.168;9.848;2022-12-20T13:41:44;96653.44;;;12.11;82.47
40502;BME280;29631;49.168;9.848;2022-12-20T13:49:47;96658.97;;;12.03;83.52
40502;BME280;29631;49.168;9.848;2022-12-20T13:52:31;96659.75;;;12.10;82.41
40502;BME280;29631;49.168;9.848;2022-12-20T13:55:20;96657.91;;;12.11;82.73
40502;BME280;29631;49.168;9.848;2022-12-20T13:57:47;96663.41;;;12.09;83.13
40502;BME280;29631;49.168;9.848;2022-12-20T14:00:31;96670.25;;;12.17;82.85
40502;BME280;29631;49.168;9.848;2022-12-20T14:02:57;96673.88;;;12.22;82.99
40502;BME280;29631;49.168;9.848;2022-12-20T14:05:31;96662.16;;;12.12;83.50
40502;BME280;29631;49.168;9.848;2022-12-20T14:10:30;96673.72;;;12.17;83.32
40502;BME280;29631;49.168;9.848;2022-12-20T14:12:57;96699.91;;;12.25;82.99
40502;BME280;29631;49.168;9.848;2022-12-20T14:15:27;96708.00;;;12.30;82.91
40502;BME280;29631;49.168;9.848;2022-12-20T14:17:53;96708.41;;;12.27;83.60
40502;BME280;29631;49.168;9.848;2022-12-20T14:20:55;96692.53;;;12.27;83.17
40502;BME280;29631;49.168;9.848;2022-12-20T14:23:25;96665.34;;;12.20;83.36
40502;BME280;29631;49.168;9.848;2022-12-20T14:25:57;96686.78;;;12.36;82.71
40502;BME280;29631;49.168;9.848;2022-12-20T14:28:39;96680.69;;;12.36;82.91
40502;BME280;29631;49.168;9.848;2022-12-20T14:34:02;96673.75;;;12.41;82.97
40502;BME280;29631;49.168;9.848;2022-12-20T14:36:28;96670.53;;;12.33;82.96
40502;BME280;29631;49.168;9.848;2022-12-20T14:38:58;96660.81;;;12.27;82.53
40502;BME280;29631;49.168;9.848;2022-12-20T14:41:37;96664.84;;;12.36;82.41
40502;BME280;29631;49.168;9.848;2022-12-20T14:46:35;96611.66;;;12.26;83.23
40502;BME280;29631;49.168;9.848;2022-12-20T14:49:31;96621.00;;;12.29;83.45
40502;BME280;29631;49.168;9.848;2022-12-20T15:08:24;96646.19;;;12.31;82.51
40502;BME280;29631;49.168;9.848;2022-12-20T15:13:45;96644.16;;;12.27;82.51
40502;BME280;29631;49.168;9.848;2022-12-20T15:16:27;96647.03;;;12.25;82.77
40502;BME280;29631;49.168;9.848;2022-12-20T15:18:59;96645.78;;;12.28;83.12
40502;BME280;29631;49.168;9.848;2022-12-20T15:21:36;96644.78;;;12.29;83.53
40502;BME280;29631;49.168;9.848;2022-12-20T15:24:07;96641.31;;;12.28;83.40
40502;BME280;29631;49.168;9.848;2022-12-20T15:26:35;96651.00;;;12.34;83.27
40502;BME280;29631;49.168;9.848;2022-12-20T15:29:01;96642.06;;;12.35;83.05
40502;BME280;29631;49.168;9.848;2022-12-20T15:31:28;96593.47;;;12.12;82.94
40502;BME280;29631;49.168;9.848;2022-12-20T15:33:54;96585.97;;;12.09;82.44
40502;BME280;29631;49.168;9.848;2022-12-20T15:36:25;96604.38;;;12.22;82.33
40502;BME280;29631;49.168;9.848;2022-12-20T15:38:52;96601.91;;;12.20;82.36
40502;BME280;29631;49.168;9.848;2022-12-20T15:41:23;96564.03;;;11.84;82.71
40502;BME280;29631;49.168;9.848;2022-12-20T15:43:54;96585.75;;;12.10;82.23
40502;BME280;29631;49.168;9.848;2022-12-20T15:46:21;96601.19;;;12.13;81.67
40502;BME280;29631;49.168;9.848;2022-12-20T15:48:46;96560.91;;;11.93;82.51
40502;BME280;29631;49.168;9.848;2022-12-20T15:51:36;96581.75;;;12.01;82.19